Terminal Aerodrome Forecast
Issued by NWS Lake Charles, LA

Home | Current Version | Previous Version | Text Only | Print | Product List | Glossary On
Versions: 1 2 3 4 5 6 7 8 9 10 11 12 13 14 15 16 17 18 19 20 21
000
FTUS44 KLCH 071151 CCA
TAFAEX
TAF COR
KAEX 071151Z 0712/0812 14008KT P6SM FEW005 SCT018
      TEMPO 0712/0714 4SM BR BKN005
     FM071600 18012G20KT P6SM SCT040
     FM080000 16006KT P6SM FEW040 BKN200=

USA.gov is the U.S. government's official web portal to all federal, state and local government web resources and services.